createdAt,value
2016-07-12T00:00:17.688Z,0
2016-07-12T00:01:17.699Z,0
2016-07-12T00:02:17.666Z,0
2016-07-12T00:03:17.657Z,0
2016-07-12T00:04:17.692Z,0
2016-07-12T00:05:17.685Z,0
2016-07-12T00:06:17.711Z,0
2016-07-12T00:07:17.700Z,0
2016-07-12T00:08:17.725Z,0
2016-07-12T00:09:17.731Z,0
2016-07-12T00:10:17.739Z,0
2016-07-12T00:11:17.720Z,0
2016-07-12T00:12:17.708Z,0
2016-07-12T00:13:17.733Z,0
2016-07-12T00:14:17.692Z,0
2016-07-12T00:15:17.832Z,0
2016-07-12T00:16:17.698Z,0
2016-07-12T00:17:17.680Z,0
2016-07-12T00:18:17.713Z,0
2016-07-12T00:19:17.711Z,0
2016-07-12T00:20:17.712Z,0
2016-07-12T00:21:17.695Z,0
2016-07-12T00:22:17.711Z,0
2016-07-12T00:23:17.715Z,0
2016-07-12T00:24:17.691Z,0
2016-07-12T00:25:17.680Z,0
2016-07-12T00:26:17.688Z,0
2016-07-12T00:27:17.694Z,0
2016-07-12T00:28:17.770Z,0
2016-07-12T00:29:17.714Z,0
2016-07-12T00:30:17.703Z,0
2016-07-12T00:31:17.765Z,0
2016-07-12T00:32:17.760Z,0
2016-07-12T00:33:17.694Z,0
2016-07-12T00:34:17.746Z,0
2016-07-12T00:35:17.711Z,0
2016-07-12T00:36:17.767Z,0
2016-07-12T00:37:17.771Z,0
2016-07-12T00:38:17.740Z,0
2016-07-12T00:39:17.767Z,0
2016-07-12T00:40:17.742Z,0
2016-07-12T00:41:17.733Z,0
2016-07-12T00:42:17.772Z,0
2016-07-12T00:43:17.777Z,0
2016-07-12T00:44:17.742Z,0
2016-07-12T00:45:17.710Z,0
2016-07-12T00:46:17.741Z,0
2016-07-12T00:47:17.735Z,0
2016-07-12T00:48:17.743Z,0
2016-07-12T00:49:17.712Z,0
2016-07-12T00:50:17.756Z,0
2016-07-12T00:51:17.776Z,0
2016-07-12T00:52:17.744Z,0
2016-07-12T00:53:17.765Z,0
2016-07-12T00:54:17.743Z,0
2016-07-12T00:55:17.770Z,0
2016-07-12T00:56:17.770Z,0
2016-07-12T00:57:17.793Z,0
2016-07-12T00:58:17.754Z,0
2016-07-12T00:59:17.717Z,0
2016-07-12T01:00:17.714Z,0
2016-07-12T01:01:17.737Z,0
2016-07-12T01:02:17.726Z,0
2016-07-12T01:03:17.790Z,0
2016-07-12T01:04:17.720Z,0
2016-07-12T01:05:17.754Z,0
2016-07-12T01:06:17.720Z,0
2016-07-12T01:07:17.759Z,0
2016-07-12T01:08:17.766Z,0
2016-07-12T01:09:17.743Z,0
2016-07-12T01:10:17.743Z,0
2016-07-12T01:11:17.804Z,0
2016-07-12T01:12:17.770Z,0
2016-07-12T01:13:17.794Z,0
2016-07-12T01:14:17.767Z,0
2016-07-12T01:15:17.763Z,0
2016-07-12T01:16:17.899Z,0
2016-07-12T01:17:17.832Z,0
2016-07-12T01:18:17.769Z,0
2016-07-12T01:19:17.807Z,0
2016-07-12T01:20:17.802Z,0
2016-07-12T01:21:18.398Z,0
2016-07-12T01:22:17.774Z,0
2016-07-12T01:23:17.763Z,0
2016-07-12T01:24:17.815Z,0
2016-07-12T01:25:17.771Z,0
2016-07-12T01:26:17.764Z,0
2016-07-12T01:27:17.821Z,0
2016-07-12T01:28:17.777Z,0
2016-07-12T01:29:17.775Z,0
2016-07-12T01:30:17.809Z,0
2016-07-12T01:31:17.806Z,0
2016-07-12T01:32:17.796Z,0
2016-07-12T01:33:17.862Z,0
2016-07-12T01:34:17.796Z,0
2016-07-12T01:35:18.474Z,0
2016-07-12T01:36:17.804Z,0
2016-07-12T01:37:17.773Z,0
2016-07-12T01:38:17.768Z,0
2016-07-12T01:39:17.840Z,0
2016-07-12T01:40:17.819Z,0
2016-07-12T01:41:17.794Z,0
2016-07-12T01:42:17.823Z,0
2016-07-12T01:43:17.810Z,0
2016-07-12T01:44:17.782Z,0
2016-07-12T01:45:17.814Z,0
2016-07-12T01:46:17.781Z,0
2016-07-12T01:47:17.785Z,0
2016-07-12T01:48:17.818Z,0
2016-07-12T01:49:17.803Z,0
2016-07-12T01:50:17.778Z,0
2016-07-12T01:51:17.810Z,0
2016-07-12T01:52:17.775Z,0
2016-07-12T01:53:17.793Z,0
2016-07-12T01:54:17.779Z,0
2016-07-12T01:55:17.792Z,0
2016-07-12T01:56:17.814Z,0
2016-07-12T01:57:17.787Z,0
2016-07-12T01:58:17.800Z,0
2016-07-12T01:59:17.801Z,0
2016-07-12T02:00:17.796Z,0
2016-07-12T02:01:17.806Z,0
2016-07-12T02:02:17.790Z,0
2016-07-12T02:03:17.805Z,0
2016-07-12T02:04:17.837Z,0
2016-07-12T02:05:17.816Z,0
2016-07-12T02:06:17.794Z,0
2016-07-12T02:07:17.843Z,0
2016-07-12T02:08:17.802Z,0
2016-07-12T02:09:17.841Z,0
2016-07-12T02:10:17.934Z,0
2016-07-12T02:11:18.410Z,0
2016-07-12T02:12:17.933Z,0
2016-07-12T02:13:17.958Z,0
2016-07-12T02:14:18.150Z,0
2016-07-12T02:15:18.867Z,0
2016-07-12T02:16:17.940Z,0
2016-07-12T02:17:18.075Z,0
2016-07-12T02:18:17.974Z,0
2016-07-12T02:19:18.143Z,0
2016-07-12T02:20:18.018Z,0
2016-07-12T02:21:18.832Z,0
2016-07-12T02:22:18.543Z,0
2016-07-12T02:23:18.845Z,0
2016-07-12T02:24:18.801Z,0
2016-07-12T02:25:17.837Z,0
2016-07-12T02:26:17.824Z,0
2016-07-12T02:27:17.869Z,0
2016-07-12T02:28:17.866Z,4
2016-07-12T02:29:17.855Z,4
2016-07-12T02:30:17.851Z,4
2016-07-12T02:31:17.930Z,4
2016-07-12T02:32:17.840Z,4
2016-07-12T02:33:17.861Z,4
2016-07-12T02:34:17.868Z,4
2016-07-12T02:35:17.872Z,4
2016-07-12T02:36:17.834Z,0
2016-07-12T02:37:18.127Z,0
2016-07-12T02:38:18.037Z,4
2016-07-12T02:39:17.838Z,4
2016-07-12T02:40:18.084Z,4
2016-07-12T02:41:17.875Z,4
2016-07-12T02:42:17.822Z,4
2016-07-12T02:43:17.829Z,4
2016-07-12T02:44:18.018Z,4
2016-07-12T02:45:17.889Z,8
2016-07-12T02:46:17.944Z,8
2016-07-12T02:47:18.376Z,8
2016-07-12T02:48:17.837Z,8
2016-07-12T02:49:17.869Z,12
2016-07-12T02:50:17.848Z,12
2016-07-12T02:51:17.878Z,12
2016-07-12T02:52:17.846Z,12
2016-07-12T02:53:17.814Z,16
2016-07-12T02:54:17.820Z,16
2016-07-12T02:55:17.814Z,20
2016-07-12T02:56:17.872Z,24
2016-07-12T02:57:17.870Z,24
2016-07-12T02:58:17.926Z,24
2016-07-12T02:59:17.889Z,32
2016-07-12T03:00:17.819Z,32
2016-07-12T03:01:17.843Z,40
2016-07-12T03:02:17.852Z,40
2016-07-12T03:03:17.840Z,48
2016-07-12T03:04:17.870Z,52
2016-07-12T03:05:17.874Z,60
2016-07-12T03:06:18.227Z,68
2016-07-12T03:07:18.308Z,76
2016-07-12T03:08:17.869Z,84
2016-07-12T03:09:17.824Z,96
2016-07-12T03:10:17.855Z,108
2016-07-12T03:11:18.109Z,116
2016-07-12T03:12:17.868Z,128
2016-07-12T03:13:18.169Z,144
2016-07-12T03:14:17.839Z,160
2016-07-12T03:15:18.380Z,176
2016-07-12T03:16:17.958Z,192
2016-07-12T03:17:18.244Z,208
2016-07-12T03:18:18.221Z,224
2016-07-12T03:19:18.056Z,236
2016-07-12T03:20:17.960Z,252
2016-07-12T03:21:18.264Z,268
2016-07-12T03:22:17.875Z,288
2016-07-12T03:23:17.937Z,304
2016-07-12T03:24:18.493Z,328
2016-07-12T03:25:17.906Z,344
2016-07-12T03:26:18.618Z,364
2016-07-12T03:27:17.937Z,388
2016-07-12T03:28:17.905Z,412
2016-07-12T03:29:17.946Z,436
2016-07-12T03:30:18.002Z,456
2016-07-12T03:31:18.248Z,484
2016-07-12T03:32:17.854Z,512
2016-07-12T03:33:17.838Z,536
2016-07-12T03:34:18.218Z,556
2016-07-12T03:35:18.082Z,568
2016-07-12T03:36:17.872Z,604
2016-07-12T03:37:18.824Z,648
2016-07-12T03:38:17.886Z,700
2016-07-12T03:39:17.865Z,776
2016-07-12T03:40:17.859Z,828
2016-07-12T03:41:17.878Z,880
2016-07-12T03:42:17.861Z,932
2016-07-12T03:43:17.847Z,980
2016-07-12T03:44:17.992Z,1036
2016-07-12T03:45:17.932Z,1080
2016-07-12T03:46:17.960Z,1140
2016-07-12T03:47:17.849Z,1216
2016-07-12T03:48:17.931Z,1308
2016-07-12T03:49:17.874Z,1384
2016-07-12T03:50:18.516Z,1452
2016-07-12T03:51:17.922Z,1528
2016-07-12T03:52:19.071Z,1624
2016-07-12T03:53:18.348Z,1696
2016-07-12T03:54:18.355Z,1772
2016-07-12T03:55:17.885Z,1868
2016-07-12T03:56:17.892Z,1936
2016-07-12T03:57:18.021Z,2072
2016-07-12T03:58:19.112Z,2144
2016-07-12T03:59:17.900Z,2184
2016-07-12T04:00:17.912Z,2144
2016-07-12T04:01:18.052Z,2220
2016-07-12T04:02:17.919Z,2456
2016-07-12T04:03:17.876Z,2568
2016-07-12T04:04:17.903Z,2632
2016-07-12T04:05:17.915Z,2652
2016-07-12T04:06:17.922Z,2740
2016-07-12T04:07:17.906Z,2772
2016-07-12T04:08:17.968Z,2772
2016-07-12T04:09:17.937Z,2764
2016-07-12T04:10:17.889Z,2756
2016-07-12T04:11:17.904Z,2808
2016-07-12T04:12:17.907Z,2908
2016-07-12T04:13:17.883Z,2884
2016-07-12T04:14:17.896Z,2852
2016-07-12T04:15:17.894Z,2760
2016-07-12T04:16:18.024Z,2852
2016-07-12T04:17:17.879Z,2968
2016-07-12T04:18:17.874Z,2864
2016-07-12T04:19:17.910Z,2952
2016-07-12T04:20:17.881Z,3108
2016-07-12T04:21:17.996Z,3268
2016-07-12T04:22:17.931Z,3360
2016-07-12T04:23:17.935Z,3408
2016-07-12T04:24:17.923Z,3452
2016-07-12T04:25:17.989Z,3484
2016-07-12T04:26:17.920Z,3536
2016-07-12T04:27:17.943Z,3572
2016-07-12T04:28:17.934Z,3620
2016-07-12T04:29:17.887Z,3656
2016-07-12T04:30:17.990Z,3596
2016-07-12T04:31:17.986Z,3460
2016-07-12T04:32:17.963Z,3340
2016-07-12T04:33:17.951Z,3272
2016-07-12T04:34:17.905Z,3284
2016-07-12T04:35:17.915Z,3464
2016-07-12T04:36:17.914Z,3644
2016-07-12T04:37:17.925Z,3720
2016-07-12T04:38:17.883Z,3844
2016-07-12T04:39:17.976Z,3976
2016-07-12T04:40:17.927Z,4160
2016-07-12T04:41:17.904Z,4300
2016-07-12T04:42:17.916Z,4384
2016-07-12T04:43:17.936Z,4288
2016-07-12T04:44:17.956Z,4268
2016-07-12T04:45:17.911Z,4408
2016-07-12T04:46:18.492Z,4396
2016-07-12T04:47:17.936Z,4444
2016-07-12T04:48:17.937Z,4636
2016-07-12T04:49:17.938Z,4904
2016-07-12T04:50:17.905Z,5180
2016-07-12T04:51:17.946Z,5352
2016-07-12T04:52:17.924Z,5432
2016-07-12T04:53:17.935Z,5252
2016-07-12T04:54:17.980Z,5096
2016-07-12T04:55:18.002Z,5108
2016-07-12T04:56:17.907Z,5500
2016-07-12T04:57:17.963Z,5492
2016-07-12T04:58:17.971Z,6476
2016-07-12T04:59:17.966Z,4624
2016-07-12T05:00:17.984Z,4140
2016-07-12T05:01:18.010Z,3972
2016-07-12T05:02:17.916Z,3784
2016-07-12T05:03:17.966Z,3788
2016-07-12T05:04:17.967Z,3792
2016-07-12T05:05:17.921Z,4120
2016-07-12T05:06:17.938Z,4540
2016-07-12T05:07:17.993Z,5048
2016-07-12T05:08:17.942Z,4484
2016-07-12T05:09:17.958Z,4476
2016-07-12T05:10:17.937Z,4500
2016-07-12T05:11:17.951Z,4408
2016-07-12T05:12:17.967Z,4072
2016-07-12T05:13:17.995Z,3812
2016-07-12T05:14:18.006Z,4760
2016-07-12T05:15:17.968Z,8336
2016-07-12T05:16:18.041Z,9224
2016-07-12T05:17:17.961Z,9520
2016-07-12T05:18:17.941Z,9372
2016-07-12T05:19:18.940Z,9552
2016-07-12T05:20:18.177Z,9888
2016-07-12T05:21:18.022Z,9856
2016-07-12T05:22:18.032Z,10096
2016-07-12T05:23:18.006Z,8604
2016-07-12T05:24:17.972Z,7156
2016-07-12T05:25:17.974Z,6380
2016-07-12T05:26:17.981Z,6236
2016-07-12T05:27:17.980Z,6888
2016-07-12T05:28:17.942Z,8124
2016-07-12T05:29:18.045Z,7748
2016-07-12T05:30:17.985Z,7728
2016-07-12T05:31:18.078Z,7664
2016-07-12T05:32:18.034Z,7100
2016-07-12T05:33:18.086Z,6688
2016-07-12T05:34:18.688Z,6480
2016-07-12T05:35:17.961Z,6448
2016-07-12T05:36:18.025Z,6492
2016-07-12T05:37:18.032Z,6504
2016-07-12T05:38:17.999Z,6652
2016-07-12T05:39:17.995Z,7240
2016-07-12T05:40:17.996Z,7212
2016-07-12T05:41:17.984Z,6596
2016-07-12T05:42:17.979Z,6436
2016-07-12T05:43:18.007Z,6440
2016-07-12T05:44:17.996Z,6448
2016-07-12T05:45:18.004Z,6644
2016-07-12T05:46:18.137Z,7364
2016-07-12T05:47:18.029Z,7728
2016-07-12T05:48:18.035Z,9092
2016-07-12T05:49:18.077Z,10788
2016-07-12T05:50:18.021Z,10140
2016-07-12T05:51:17.995Z,11460
2016-07-12T05:52:18.000Z,15268
2016-07-12T05:53:18.059Z,16696
2016-07-12T05:54:18.001Z,14976
2016-07-12T05:55:18.016Z,14860
2016-07-12T05:56:18.029Z,15296
2016-07-12T05:57:18.013Z,13376
2016-07-12T05:58:18.031Z,13968
2016-07-12T05:59:18.009Z,13120
2016-07-12T06:00:18.106Z,11464
2016-07-12T06:01:18.060Z,11520
2016-07-12T06:02:18.034Z,11836
2016-07-12T06:03:18.060Z,10080
2016-07-12T06:04:18.033Z,8732
2016-07-12T06:05:18.011Z,12904
2016-07-12T06:06:18.019Z,11060
2016-07-12T06:07:18.025Z,8448
2016-07-12T06:08:17.984Z,8368
2016-07-12T06:09:18.053Z,9308
2016-07-12T06:10:18.061Z,8812
2016-07-12T06:11:18.034Z,8144
2016-07-12T06:12:18.012Z,8192
2016-07-12T06:13:18.083Z,7828
2016-07-12T06:14:18.105Z,8292
2016-07-12T06:15:18.046Z,9120
2016-07-12T06:16:18.041Z,8708
2016-07-12T06:17:18.024Z,9592
2016-07-12T06:18:18.090Z,9284
2016-07-12T06:19:18.050Z,9028
2016-07-12T06:20:18.040Z,8132
2016-07-12T06:21:18.016Z,8972
2016-07-12T06:22:18.002Z,8380
2016-07-12T06:23:18.005Z,7304
2016-07-12T06:24:18.032Z,6948
2016-07-12T06:25:18.016Z,7336
2016-07-12T06:26:18.032Z,8548
2016-07-12T06:27:18.058Z,8552
2016-07-12T06:28:18.018Z,7396
2016-07-12T06:29:18.029Z,7604
2016-07-12T06:30:18.002Z,10272
2016-07-12T06:31:18.001Z,8452
2016-07-12T06:32:18.003Z,7200
2016-07-12T06:33:18.025Z,10040
2016-07-12T06:34:18.089Z,13720
2016-07-12T06:35:18.122Z,26496
2016-07-12T06:36:18.041Z,37472
2016-07-12T06:37:18.033Z,44320
2016-07-12T06:38:19.680Z,52448
2016-07-12T06:39:18.180Z,53344
2016-07-12T06:40:18.056Z,50912
2016-07-12T06:41:18.101Z,48416
2016-07-12T06:42:18.091Z,47520
2016-07-12T06:43:18.045Z,50496
2016-07-12T06:44:18.062Z,55904
2016-07-12T06:45:18.064Z,59680
2016-07-12T06:46:18.030Z,62624
2016-07-12T06:47:18.157Z,60800
2016-07-12T06:48:18.038Z,59040
2016-07-12T06:49:18.091Z,54592
2016-07-12T06:50:18.153Z,52576
2016-07-12T06:51:18.095Z,51744
2016-07-12T06:52:18.087Z,52928
2016-07-12T06:53:18.063Z,56352
2016-07-12T06:54:18.068Z,59456
2016-07-12T06:55:18.077Z,60672
2016-07-12T06:56:18.117Z,61536
2016-07-12T06:57:18.062Z,61824
2016-07-12T06:58:18.084Z,61440
2016-07-12T06:59:18.065Z,61952
2016-07-12T07:00:18.222Z,63616
2016-07-12T07:01:18.040Z,63328
2016-07-12T07:02:18.096Z,62752
2016-07-12T07:03:18.483Z,61248
2016-07-12T07:04:18.135Z,57088
2016-07-12T07:05:18.116Z,52576
2016-07-12T07:06:18.064Z,52128
2016-07-12T07:07:18.082Z,57696
2016-07-12T07:08:18.062Z,62144
2016-07-12T07:09:18.053Z,64512
2016-07-12T07:10:18.094Z,63520
2016-07-12T07:11:18.057Z,61248
2016-07-12T07:12:18.065Z,58464
2016-07-12T07:13:18.580Z,55808
2016-07-12T07:14:18.136Z,55968
2016-07-12T07:15:18.190Z,56480
2016-07-12T07:16:18.116Z,56800
2016-07-12T07:17:18.313Z,56576
2016-07-12T07:18:18.073Z,54848
2016-07-12T07:19:18.065Z,55072
2016-07-12T07:20:18.198Z,54304
2016-07-12T07:21:28.037Z,58240
2016-07-12T07:22:18.144Z,43904
2016-07-12T07:23:18.124Z,66112
2016-07-12T07:24:18.083Z,65216
2016-07-12T07:25:18.078Z,66432
2016-07-12T07:26:18.093Z,64704
2016-07-12T07:27:18.117Z,62944
2016-07-12T07:28:18.099Z,63744
2016-07-12T07:29:18.277Z,65664
2016-07-12T07:30:18.152Z,61440
2016-07-12T07:31:18.143Z,59552
2016-07-12T07:32:52.277Z,55872
2016-07-12T07:33:18.095Z,32640
2016-07-12T07:34:52.183Z,71424
2016-07-12T07:35:28.294Z,12340
2016-07-12T07:36:42.316Z,9280
2016-07-12T07:38:09.807Z,70112
2016-07-12T07:38:38.362Z,69440
2016-07-12T07:40:11.566Z,14364
2016-07-12T07:41:13.760Z,7232
2016-07-12T07:41:39.755Z,10584
2016-07-12T07:42:39.725Z,16996
2016-07-12T07:43:39.708Z,48864
2016-07-12T07:44:39.783Z,17836
2016-07-12T07:46:34.314Z,15548
2016-07-12T07:47:59.161Z,15124
2016-07-12T07:48:25.996Z,71616
2016-07-12T07:49:26.507Z,76608
2016-07-12T07:50:26.284Z,76064
2016-07-12T07:51:26.017Z,74112
2016-07-12T07:52:26.200Z,73184
2016-07-12T07:53:26.339Z,59072
2016-07-12T07:54:25.959Z,20672
2016-07-12T07:55:26.186Z,78368
2016-07-12T07:56:25.966Z,15600
2016-07-12T07:57:26.002Z,61280
2016-07-12T07:58:26.014Z,15876
2016-07-12T07:59:26.084Z,72352
2016-07-12T08:00:26.326Z,78048
2016-07-12T08:01:25.996Z,78400
2016-07-12T08:02:26.193Z,78816
2016-07-12T08:03:26.024Z,68896
2016-07-12T08:04:26.527Z,43296
2016-07-12T08:05:25.983Z,18560
2016-07-12T08:06:26.503Z,11900
2016-07-12T08:07:26.389Z,12496
2016-07-12T08:08:27.052Z,9972
2016-07-12T08:09:26.211Z,7840
2016-07-12T08:10:26.281Z,8588
2016-07-12T08:11:26.381Z,8940
2016-07-12T08:12:26.294Z,8472
2016-07-12T08:13:26.041Z,8392
2016-07-12T08:14:26.118Z,9100
2016-07-12T08:15:26.137Z,8688
2016-07-12T08:16:26.114Z,8200
2016-07-12T08:17:26.515Z,10004
2016-07-12T08:18:26.382Z,10092
2016-07-12T08:19:26.109Z,11804
2016-07-12T08:20:26.350Z,15300
2016-07-12T08:21:26.485Z,12284
2016-07-12T08:22:26.011Z,10048
2016-07-12T08:23:26.086Z,8444
2016-07-12T08:24:26.714Z,9720
2016-07-12T08:25:26.047Z,11708
2016-07-12T08:26:26.715Z,13224
2016-07-12T08:27:26.107Z,12616
2016-07-12T08:28:26.328Z,15884
2016-07-12T08:29:26.073Z,14376
2016-07-12T08:31:45.799Z,15480
2016-07-12T08:32:13.102Z,13280
2016-07-12T08:33:13.004Z,10716
2016-07-12T08:34:13.042Z,12996
2016-07-12T08:35:13.051Z,14324
2016-07-12T08:36:12.948Z,17780
2016-07-12T08:37:12.944Z,18380
2016-07-12T08:38:13.451Z,18456
2016-07-12T08:39:13.629Z,14948
2016-07-12T08:40:13.203Z,11228
2016-07-12T08:41:13.305Z,10528
2016-07-12T08:42:13.153Z,11476
2016-07-12T08:43:13.891Z,10144
2016-07-12T08:44:14.901Z,11828
2016-07-12T08:45:13.064Z,15264
2016-07-12T08:46:12.989Z,15020
2016-07-12T08:47:13.265Z,12076
2016-07-12T08:48:13.037Z,9364
2016-07-12T08:49:13.121Z,8000
2016-07-12T08:50:13.095Z,7864
2016-07-12T08:51:13.167Z,8808
2016-07-12T08:52:13.270Z,11812
2016-07-12T08:53:13.537Z,13264
2016-07-12T08:54:13.302Z,16608
2016-07-12T08:55:13.061Z,14772
2016-07-12T08:56:16.242Z,11572
2016-07-12T08:57:13.096Z,9096
2016-07-12T08:58:13.689Z,10348
2016-07-12T08:59:13.430Z,9732
2016-07-12T09:00:13.564Z,10596
2016-07-12T09:01:13.049Z,9448
2016-07-12T09:02:12.983Z,8328
2016-07-12T09:03:13.037Z,7724
2016-07-12T09:04:13.186Z,10708
2016-07-12T09:05:13.199Z,9508
2016-07-12T09:06:13.817Z,9584
2016-07-12T09:07:13.326Z,7376
2016-07-12T09:08:13.565Z,7920
2016-07-12T09:09:13.011Z,8324
2016-07-12T09:10:13.068Z,8104
2016-07-12T09:11:13.137Z,7608
2016-07-12T09:12:13.485Z,7344
2016-07-12T09:13:13.163Z,7564
2016-07-12T09:14:13.101Z,8528
2016-07-12T09:15:13.292Z,9952
2016-07-12T09:16:13.066Z,7352
2016-07-12T09:17:13.491Z,7864
2016-07-12T09:18:13.064Z,7296
2016-07-12T09:19:12.991Z,7992
2016-07-12T09:20:13.002Z,8244
2016-07-12T09:21:13.010Z,7584
2016-07-12T09:22:13.408Z,7064
2016-07-12T09:23:13.115Z,6860
2016-07-12T09:24:13.386Z,6824
2016-07-12T09:25:13.026Z,7292
2016-07-12T09:26:13.150Z,8380
2016-07-12T09:27:13.052Z,11176
2016-07-12T09:28:13.010Z,13864
2016-07-12T09:29:13.076Z,13064
2016-07-12T09:30:13.014Z,12212
2016-07-12T09:31:13.360Z,11424
2016-07-12T09:32:13.484Z,12180
2016-07-12T09:33:13.084Z,10076
2016-07-12T09:34:13.632Z,10332
2016-07-12T09:35:13.452Z,11240
2016-07-12T09:36:13.307Z,11440
2016-07-12T09:37:13.909Z,13164
2016-07-12T09:38:13.357Z,13232
2016-07-12T09:39:13.571Z,13652
2016-07-12T09:40:13.024Z,13064
2016-07-12T09:41:13.214Z,12248
2016-07-12T09:42:13.688Z,10628
2016-07-12T09:43:13.261Z,7568
2016-07-12T09:44:13.072Z,8076
2016-07-12T09:45:13.043Z,8508
2016-07-12T09:46:13.061Z,9460
2016-07-12T09:47:13.041Z,10760
2016-07-12T09:48:13.093Z,12364
2016-07-12T09:49:13.062Z,11036
2016-07-12T09:50:13.008Z,12740
2016-07-12T09:51:13.028Z,10420
2016-07-12T09:52:13.035Z,9080
2016-07-12T09:53:13.094Z,8168
2016-07-12T09:54:13.057Z,7916
2016-07-12T09:55:13.114Z,7676
2016-07-12T09:56:13.148Z,8732
2016-07-12T09:57:13.247Z,8876
2016-07-12T09:58:13.128Z,7856
2016-07-12T09:59:13.155Z,6804
2016-07-12T10:00:13.160Z,8764
2016-07-12T10:01:13.052Z,7924
2016-07-12T10:02:13.040Z,6856
2016-07-12T10:03:13.126Z,6416
2016-07-12T10:04:13.274Z,6632
2016-07-12T10:05:13.059Z,8080
2016-07-12T10:06:13.158Z,11328
2016-07-12T10:07:13.409Z,12980
2016-07-12T10:08:13.238Z,8856
2016-07-12T10:09:13.130Z,8284
2016-07-12T10:10:13.082Z,7560
2016-07-12T10:11:13.734Z,7416
2016-07-12T10:12:13.060Z,7548
2016-07-12T10:13:13.126Z,7712
2016-07-12T10:14:13.218Z,7312
2016-07-12T10:15:13.148Z,7896
2016-07-12T10:16:13.055Z,8468
2016-07-12T10:17:13.063Z,7996
2016-07-12T10:18:13.080Z,7524
2016-07-12T10:19:13.063Z,12028
2016-07-12T10:20:13.206Z,14784
2016-07-12T10:21:13.073Z,14856
2016-07-12T10:22:13.848Z,14284
2016-07-12T10:23:13.117Z,13264
2016-07-12T10:24:13.891Z,11424
2016-07-12T10:25:13.086Z,12252
2016-07-12T10:26:13.124Z,13020
2016-07-12T10:27:13.087Z,12148
2016-07-12T10:28:13.101Z,12180
2016-07-12T10:29:13.085Z,12224
2016-07-12T10:30:13.105Z,13944
2016-07-12T10:31:13.363Z,14100
2016-07-12T10:32:13.168Z,13808
2016-07-12T10:33:13.175Z,15016
2016-07-12T10:35:05.362Z,16936
2016-07-12T10:35:17.097Z,16692
2016-07-12T10:36:17.046Z,17420
2016-07-12T10:37:17.088Z,16572
2016-07-12T10:38:17.176Z,15828
2016-07-12T10:39:17.093Z,15316
2016-07-12T10:40:17.892Z,13104
2016-07-12T10:41:17.082Z,11428
2016-07-12T10:42:17.150Z,10424
2016-07-12T10:43:17.058Z,9112
2016-07-12T10:44:17.205Z,9864
2016-07-12T10:45:17.098Z,10640
2016-07-12T10:46:17.090Z,8904
2016-07-12T10:47:17.084Z,7244
2016-07-12T10:48:17.106Z,7192
2016-07-12T10:49:17.029Z,6992
2016-07-12T10:50:17.091Z,6404
2016-07-12T10:51:17.081Z,6856
2016-07-12T10:52:17.685Z,6728
2016-07-12T10:53:17.236Z,6528
2016-07-12T10:54:17.057Z,6464
2016-07-12T10:55:17.176Z,7608
2016-07-12T10:56:17.052Z,8900
2016-07-12T10:57:17.058Z,9420
2016-07-12T10:58:17.051Z,9864
2016-07-12T10:59:17.077Z,9896
2016-07-12T11:00:17.082Z,9760
2016-07-12T11:01:17.084Z,9832
2016-07-12T11:02:17.440Z,10700
2016-07-12T11:03:17.119Z,10180
2016-07-12T11:04:17.138Z,9508
2016-07-12T11:05:17.094Z,8548
2016-07-12T11:06:17.149Z,8332
2016-07-12T11:07:17.160Z,8600
2016-07-12T11:08:17.124Z,8796
2016-07-12T11:09:17.222Z,9064
2016-07-12T11:10:17.096Z,9360
2016-07-12T11:11:17.161Z,9480
2016-07-12T11:12:17.159Z,9132
2016-07-12T11:13:17.146Z,9008
2016-07-12T11:14:17.165Z,8592
2016-07-12T11:15:17.113Z,8276
2016-07-12T11:16:17.154Z,7348
2016-07-12T11:17:17.186Z,8136
2016-07-12T11:18:17.211Z,8364
2016-07-12T11:19:17.108Z,9292
2016-07-12T11:20:17.343Z,12964
2016-07-12T11:21:17.357Z,13160
2016-07-12T11:22:17.063Z,11376
2016-07-12T11:23:17.842Z,13208
2016-07-12T11:24:17.257Z,15392
2016-07-12T11:25:17.187Z,12776
2016-07-12T11:26:17.109Z,10592
2016-07-12T11:27:17.213Z,10640
2016-07-12T11:28:17.088Z,10796
2016-07-12T11:29:17.197Z,10420
2016-07-12T11:30:17.786Z,11616
2016-07-12T11:31:18.229Z,11312
2016-07-12T11:32:17.423Z,9296
2016-07-12T11:33:17.208Z,10068
2016-07-12T11:34:17.316Z,10032
2016-07-12T11:35:17.124Z,11012
2016-07-12T11:36:17.920Z,10772
2016-07-12T11:37:17.303Z,9400
2016-07-12T11:38:17.304Z,8956
2016-07-12T11:39:17.211Z,10116
2016-07-12T11:40:17.405Z,10100
2016-07-12T11:41:17.348Z,10184
2016-07-12T11:42:17.125Z,11124
2016-07-12T11:43:17.170Z,12128
2016-07-12T11:44:17.140Z,12864
2016-07-12T11:45:18.304Z,15084
2016-07-12T11:46:17.266Z,16208
2016-07-12T11:47:17.333Z,15020
2016-07-12T11:48:17.203Z,13124
2016-07-12T11:49:17.232Z,12164
2016-07-12T11:50:17.162Z,12516
2016-07-12T11:51:17.104Z,14640
2016-07-12T11:52:17.087Z,14696
2016-07-12T11:53:17.751Z,13608
2016-07-12T11:54:17.286Z,13136
2016-07-12T11:55:17.210Z,15112
2016-07-12T11:56:17.182Z,16224
2016-07-12T11:57:17.703Z,16296
2016-07-12T11:58:17.168Z,14212
2016-07-12T11:59:17.482Z,12548
2016-07-12T12:00:17.339Z,10256
2016-07-12T12:01:17.639Z,9164
2016-07-12T12:02:18.155Z,8484
2016-07-12T12:03:17.239Z,8404
2016-07-12T12:04:17.613Z,8440
2016-07-12T12:05:17.126Z,9856
2016-07-12T12:06:17.359Z,10984
2016-07-12T12:07:17.231Z,11196
2016-07-12T12:08:17.269Z,10652
2016-07-12T12:09:17.301Z,9920
2016-07-12T12:10:17.328Z,9536
2016-07-12T12:11:17.180Z,9956
2016-07-12T12:12:17.183Z,9972
2016-07-12T12:13:17.213Z,10152
2016-07-12T12:14:17.436Z,9860
2016-07-12T12:15:17.189Z,9296
2016-07-12T12:16:17.487Z,9500
2016-07-12T12:17:17.214Z,9464
2016-07-12T12:18:17.161Z,9224
2016-07-12T12:19:17.156Z,8556
2016-07-12T12:20:17.171Z,7716
2016-07-12T12:21:17.135Z,9348
2016-07-12T12:22:17.144Z,10712
2016-07-12T12:23:17.148Z,12592
2016-07-12T12:24:17.271Z,9296
2016-07-12T12:25:17.379Z,7828
2016-07-12T12:26:17.211Z,8524
2016-07-12T12:27:17.786Z,8732
2016-07-12T12:28:17.153Z,8816
2016-07-12T12:29:17.240Z,8760
2016-07-12T12:30:17.239Z,8144
2016-07-12T12:31:17.307Z,8336
2016-07-12T12:32:17.249Z,9472
2016-07-12T12:33:17.170Z,9184
2016-07-12T12:34:17.527Z,8668
2016-07-12T12:35:17.182Z,8944
2016-07-12T12:36:17.201Z,10160
2016-07-12T12:37:17.262Z,10452
2016-07-12T12:38:18.173Z,9940
2016-07-12T12:39:17.169Z,9860
2016-07-12T12:40:17.245Z,10776
2016-07-12T12:41:17.462Z,11008
2016-07-12T12:42:17.264Z,11208
2016-07-12T12:43:17.265Z,11552
2016-07-12T12:44:17.346Z,11432
2016-07-12T12:45:17.190Z,13588
2016-07-12T12:46:17.217Z,13288
2016-07-12T12:47:17.250Z,12540
2016-07-12T12:48:17.151Z,12424
2016-07-12T12:49:17.278Z,12656
2016-07-12T12:50:17.229Z,12956
2016-07-12T12:51:17.223Z,12872
2016-07-12T12:52:17.218Z,12876
2016-07-12T12:53:17.321Z,12104
2016-07-12T12:54:17.236Z,11676
2016-07-12T12:55:17.966Z,11836
2016-07-12T12:56:17.458Z,12660
2016-07-12T12:57:17.209Z,12744
2016-07-12T12:58:17.219Z,12532
2016-07-12T12:59:17.217Z,13556
2016-07-12T13:00:17.195Z,15028
2016-07-12T13:01:17.254Z,14460
2016-07-12T13:02:17.310Z,12720
2016-07-12T13:03:17.992Z,11240
2016-07-12T13:04:17.235Z,10080
2016-07-12T13:05:17.280Z,9772
2016-07-12T13:06:17.220Z,10284
2016-07-12T13:07:17.224Z,10248
2016-07-12T13:08:17.273Z,10776
2016-07-12T13:09:18.266Z,10072
2016-07-12T13:10:17.965Z,10036
2016-07-12T13:11:17.275Z,10100
2016-07-12T13:12:17.178Z,11596
2016-07-12T13:13:17.175Z,12052
2016-07-12T13:14:17.206Z,13976
2016-07-12T13:15:17.216Z,16008
2016-07-12T13:16:17.287Z,17348
2016-07-12T13:17:17.248Z,15728
2016-07-12T13:18:17.341Z,14176
2016-07-12T13:19:17.246Z,11956
2016-07-12T13:20:17.216Z,11648
2016-07-12T13:21:17.247Z,11636
2016-07-12T13:22:17.206Z,10828
2016-07-12T13:23:17.205Z,10532
2016-07-12T13:24:17.244Z,10260
2016-07-12T13:25:17.202Z,10032
2016-07-12T13:26:17.297Z,10544
2016-07-12T13:27:17.246Z,11836
2016-07-12T13:28:17.310Z,12080
2016-07-12T13:29:17.363Z,11236
2016-07-12T13:30:17.252Z,10748